Time;durP1;ratioP1;P1;durP2;ratioP2;P2;SDS_P1;SDS_P2;PMS_P1;PMS_P2;Temp;Humidity;BMP_temperature;BMP_pressure;BME280_temperature;BME280_humidity;BME280_pressure;Samples;Min_cycle;Max_cycle;Signal;HPM_P1;HPM_P2
2022/07/22 00:02:55;;;;;;;14.13;6.63;;;;;;;;;;6288333;28;20061;-72
2022/07/22 00:05:57;;;;;;;8.25;6.30;;;;;;;;;;6286258;28;20388;-76
2022/07/22 00:08:58;;;;;;;9.13;6.35;;;;;;;;;;6288104;28;20052;-73
2022/07/22 00:12:00;;;;;;;14.88;6.50;;;;;;;;;;6285283;28;20044;-77
2022/07/22 00:15:04;;;;;;;12.98;6.35;;;;;;;;;;6288652;28;20113;-70
2022/07/22 00:18:06;;;;;;;11.00;6.60;;;;;;;;;;6288819;28;20293;-77
2022/07/22 00:21:08;;;;;;;8.77;5.95;;;;;;;;;;6286803;28;20060;-75
2022/07/22 00:24:09;;;;;;;9.93;6.43;;;;;;;;;;6290694;28;20086;-71
2022/07/22 00:27:11;;;;;;;8.55;6.40;;;;;;;;;;6290383;28;20040;-75
2022/07/22 00:30:14;;;;;;;12.85;6.75;;;;;;;;;;6288301;28;20065;-75
2022/07/22 00:33:16;;;;;;;9.85;7.10;;;;;;;;;;6292597;28;20077;-75
2022/07/22 00:36:17;;;;;;;10.05;6.65;;;;;;;;;;6289499;28;20053;-77
2022/07/22 00:39:21;;;;;;;9.38;7.22;;;;;;;;;;6288307;28;20070;-75
2022/07/22 00:42:23;;;;;;;12.27;6.57;;;;;;;;;;6287487;28;20052;-75
2022/07/22 00:45:26;;;;;;;14.05;6.28;;;;;;;;;;6288906;28;20056;-73
2022/07/22 00:48:28;;;;;;;11.88;6.70;;;;;;;;;;6287772;28;20115;-75
2022/07/22 00:51:30;;;;;;;15.23;7.10;;;;;;;;;;6288789;28;20056;-76
2022/07/22 00:54:32;;;;;;;14.00;6.47;;;;;;;;;;6286431;28;20275;-74
2022/07/22 00:57:33;;;;;;;12.10;6.63;;;;;;;;;;6290124;28;20053;-75
2022/07/22 01:00:36;;;;;;;12.38;6.55;;;;;;;;;;6305795;28;20099;-75
2022/07/22 01:03:38;;;;;;;8.68;6.13;;;;;;;;;;6290887;28;20370;-75
2022/07/22 01:06:44;;;;;;;10.00;6.30;;;;;;;;;;6287829;28;20052;-75
2022/07/22 01:09:46;;;;;;;9.65;5.88;;;;;;;;;;6290317;28;20052;-74
2022/07/22 01:12:48;;;;;;;7.43;6.03;;;;;;;;;;6289727;28;20056;-74
2022/07/22 01:15:51;;;;;;;6.97;5.88;;;;;;;;;;6289600;28;20060;-73
2022/07/22 01:18:53;;;;;;;8.65;5.95;;;;;;;;;;6291438;28;20302;-72
2022/07/22 01:21:56;;;;;;;10.73;5.50;;;;;;;;;;6291219;28;20048;-75
2022/07/22 01:24:57;;;;;;;11.60;5.40;;;;;;;;;;6285873;28;20053;-75
2022/07/22 01:27:59;;;;;;;8.73;5.28;;;;;;;;;;6287743;28;20052;-74
2022/07/22 01:31:01;;;;;;;13.02;5.10;;;;;;;;;;6287600;28;20052;-74
2022/07/22 01:34:03;;;;;;;9.80;5.45;;;;;;;;;;6290008;28;20059;-75
2022/07/22 01:37:06;;;;;;;7.30;5.20;;;;;;;;;;6286862;28;20056;-74
2022/07/22 01:40:08;;;;;;;7.47;5.43;;;;;;;;;;6287613;28;20053;-74
2022/07/22 01:43:10;;;;;;;11.38;5.90;;;;;;;;;;6291488;28;20236;-75
2022/07/22 01:46:11;;;;;;;7.50;5.47;;;;;;;;;;6287115;28;20104;-75
2022/07/22 01:49:14;;;;;;;6.43;5.25;;;;;;;;;;6293990;28;20052;-75
2022/07/22 01:52:17;;;;;;;7.43;5.10;;;;;;;;;;6295013;28;20095;-72
2022/07/22 01:55:19;;;;;;;12.25;5.63;;;;;;;;;;6290939;28;20045;-74
2022/07/22 01:58:21;;;;;;;14.23;6.60;;;;;;;;;;6293473;28;20239;-75
2022/07/22 02:01:24;;;;;;;13.40;5.82;;;;;;;;;;6293644;28;20343;-75
2022/07/22 02:04:25;;;;;;;8.15;5.07;;;;;;;;;;6290595;28;20072;-71
2022/07/22 02:07:29;;;;;;;10.65;5.68;;;;;;;;;;6291209;28;20044;-74
2022/07/22 02:10:31;;;;;;;7.35;5.13;;;;;;;;;;6290351;28;20257;-74
2022/07/22 02:13:32;;;;;;;8.73;5.90;;;;;;;;;;6290135;28;20331;-73
2022/07/22 02:16:34;;;;;;;12.15;5.65;;;;;;;;;;6290309;28;20056;-73
2022/07/22 02:19:36;;;;;;;10.20;5.72;;;;;;;;;;6295577;28;20056;-73
2022/07/22 02:22:39;;;;;;;10.02;5.05;;;;;;;;;;6289893;28;20048;-73
2022/07/22 02:25:40;;;;;;;;;;;;;;;;;;6291657;28;20060;-73
2022/07/22 02:28:42;;;;;;;11.95;5.28;;;;;;;;;;6289397;28;19925;-74
2022/07/22 02:31:44;;;;;;;7.88;4.40;;;;;;;;;;6290897;28;20115;-74
2022/07/22 02:34:45;;;;;;;9.98;4.72;;;;;;;;;;6289876;28;20262;-73
2022/07/22 02:37:48;;;;;;;7.65;4.70;;;;;;;;;;6294939;28;20052;-73
2022/07/22 02:40:50;;;;;;;;;;;;;;;;;;6289218;28;20055;-75
2022/07/22 02:43:53;;;;;;;12.30;4.78;;;;;;;;;;6292152;28;20139;-73
2022/07/22 02:46:55;;;;;;;7.75;4.50;;;;;;;;;;6294054;28;20332;-75
2022/07/22 02:49:57;;;;;;;9.30;4.55;;;;;;;;;;6287503;28;20056;-75
2022/07/22 02:53:00;;;;;;;6.53;4.05;;;;;;;;;;6295809;28;20055;-72
2022/07/22 02:56:01;;;;;;;11.25;4.63;;;;;;;;;;6290036;28;20048;-75
2022/07/22 02:59:03;;;;;;;10.23;4.45;;;;;;;;;;6291849;28;20064;-75
2022/07/22 03:02:05;;;;;;;11.65;4.28;;;;;;;;;;6291745;28;20315;-74
2022/07/22 03:05:07;;;;;;;8.68;4.53;;;;;;;;;;6290296;28;20060;-75
2022/07/22 03:08:11;;;;;;;12.40;4.75;;;;;;;;;;6287605;28;20068;-74
2022/07/22 03:11:13;;;;;;;6.68;5.10;;;;;;;;;;6288938;28;20052;-73
2022/07/22 03:14:16;;;;;;;11.30;5.00;;;;;;;;;;6290392;28;20052;-74
2022/07/22 03:17:17;;;;;;;13.23;5.45;;;;;;;;;;6287838;28;20111;-74
2022/07/22 03:20:19;;;;;;;11.38;4.95;;;;;;;;;;6289323;28;20328;-73
2022/07/22 03:23:22;;;;;;;8.65;5.43;;;;;;;;;;6293104;28;20056;-75
2022/07/22 03:26:24;;;;;;;6.07;5.00;;;;;;;;;;6295480;28;20217;-74
2022/07/22 03:29:26;;;;;;;10.52;5.47;;;;;;;;;;6290152;28;20049;-75
2022/07/22 03:32:27;;;;;;;9.65;5.60;;;;;;;;;;6294983;28;20105;-75
2022/07/22 03:35:29;;;;;;;11.85;5.57;;;;;;;;;;6298071;28;20271;-75
2022/07/22 03:38:34;;;;;;;10.40;5.60;;;;;;;;;;6293352;28;20355;-75
2022/07/22 03:41:35;;;;;;;7.95;5.40;;;;;;;;;;6296472;28;20060;-75
2022/07/22 03:44:37;;;;;;;11.82;5.72;;;;;;;;;;6297085;28;20040;-75
2022/07/22 03:47:38;;;;;;;8.05;5.28;;;;;;;;;;6294462;28;20052;-74
2022/07/22 03:50:40;;;;;;;11.02;5.40;;;;;;;;;;6295666;28;20243;-75
2022/07/22 03:53:43;;;;;;;10.65;5.50;;;;;;;;;;6296235;28;20071;-75
2022/07/22 03:56:45;;;;;;;;;;;;;;;;;;6293669;28;20213;-75
2022/07/22 03:59:46;;;;;;;6.50;4.45;;;;;;;;;;6294036;28;19916;-75
2022/07/22 04:02:48;;;;;;;8.35;5.20;;;;;;;;;;6292651;28;20086;-73
2022/07/22 04:05:49;;;;;;;11.10;5.10;;;;;;;;;;6289718;28;20045;-75
2022/07/22 04:08:52;;;;;;;8.80;4.95;;;;;;;;;;6287511;28;22155;-74
2022/07/22 04:11:54;;;;;;;;;;;;;;;;;;6291361;28;20089;-73
2022/07/22 04:14:55;;;;;;;9.27;5.20;;;;;;;;;;6287850;28;19931;-74
2022/07/22 04:17:57;;;;;;;11.68;5.25;;;;;;;;;;6286479;28;20075;-74
2022/07/22 04:20:59;;;;;;;12.13;5.80;;;;;;;;;;6287460;28;20103;-74
2022/07/22 04:24:02;;;;;;;9.15;5.10;;;;;;;;;;6288502;28;20048;-73
2022/07/22 04:27:03;;;;;;;;;;;;;;;;;;6290119;28;20055;-74
2022/07/22 04:30:06;;;;;;;6.90;4.68;;;;;;;;;;6293156;28;19936;-72
2022/07/22 04:33:08;;;;;;;11.23;5.72;;;;;;;;;;6294177;28;20248;-75
2022/07/22 04:36:10;;;;;;;7.68;5.57;;;;;;;;;;6288965;28;20060;-74
2022/07/22 04:39:13;;;;;;;11.90;4.95;;;;;;;;;;6291702;28;20102;-73
2022/07/22 04:42:14;;;;;;;;;;;;;;;;;;6288770;28;20045;-74
2022/07/22 04:45:16;;;;;;;8.82;5.05;;;;;;;;;;6294033;28;19917;-73
2022/07/22 04:48:17;;;;;;;13.48;5.50;;;;;;;;;;6293814;28;20079;-73
2022/07/22 04:51:19;;;;;;;9.23;5.95;;;;;;;;;;6296605;28;20051;-73
2022/07/22 04:54:22;;;;;;;9.13;5.90;;;;;;;;;;6290618;28;20298;-73
2022/07/22 04:57:24;;;;;;;10.02;5.75;;;;;;;;;;6292595;28;20216;-69
2022/07/22 05:00:25;;;;;;;10.10;6.07;;;;;;;;;;6294804;28;20350;-74
2022/07/22 05:03:27;;;;;;;9.23;6.57;;;;;;;;;;6294433;28;20053;-74
2022/07/22 05:06:29;;;;;;;8.70;6.07;;;;;;;;;;6292890;28;20111;-73
2022/07/22 05:09:32;;;;;;;13.43;6.85;;;;;;;;;;6294169;28;20098;-73
2022/07/22 05:12:33;;;;;;;;;;;;;;;;;;6290059;28;20052;-73
2022/07/22 05:15:35;;;;;;;12.27;7.72;;;;;;;;;;6291521;28;19925;-72
2022/07/22 05:18:37;;;;;;;11.95;6.93;;;;;;;;;;6294181;28;20060;-72
2022/07/22 05:21:39;;;;;;;13.02;6.43;;;;;;;;;;6298019;28;20048;-72
2022/07/22 05:24:42;;;;;;;7.72;6.05;;;;;;;;;;6293997;28;20321;-72
2022/07/22 05:27:50;;;;;;;;;;;;;;;;;;6297240;28;20044;-74
2022/07/22 05:30:51;;;;;;;10.98;6.13;;;;;;;;;;6293143;28;20001;-73
2022/07/22 05:33:53;;;;;;;10.98;6.65;;;;;;;;;;6292065;28;20044;-74
2022/07/22 05:36:55;;;;;;;14.50;6.57;;;;;;;;;;6295470;28;20055;-74
2022/07/22 05:39:57;;;;;;;12.40;6.20;;;;;;;;;;6293056;28;20044;-71
2022/07/22 05:42:59;;;;;;;;;;;;;;;;;;6293204;28;20044;-69
2022/07/22 05:46:01;;;;;;;8.30;6.07;;;;;;;;;;6294464;28;19929;-74
2022/07/22 05:49:03;;;;;;;12.75;5.80;;;;;;;;;;6291965;28;20040;-71
2022/07/22 05:52:05;;;;;;;13.35;5.90;;;;;;;;;;6296788;28;20116;-72
2022/07/22 05:55:09;;;;;;;11.57;5.50;;;;;;;;;;6290747;28;20221;-71
2022/07/22 05:58:11;;;;;;;7.22;5.68;;;;;;;;;;6292716;28;20083;-74
2022/07/22 06:01:13;;;;;;;8.38;5.30;;;;;;;;;;6294553;28;20398;-72
2022/07/22 06:04:15;;;;;;;9.88;4.50;;;;;;;;;;6288158;28;20110;-75
2022/07/22 06:07:17;;;;;;;8.98;4.22;;;;;;;;;;6291260;28;20120;-78
2022/07/22 06:10:20;;;;;;;9.15;4.15;;;;;;;;;;6292105;28;20041;-73
2022/07/22 06:13:22;;;;;;;7.70;4.13;;;;;;;;;;6290434;28;20070;-78
2022/07/22 06:16:24;;;;;;;9.05;4.00;;;;;;;;;;6287819;28;20056;-79
2022/07/22 06:19:25;;;;;;;7.88;4.38;;;;;;;;;;6291783;28;20048;-79
2022/07/22 06:22:27;;;;;;;8.82;4.65;;;;;;;;;;6292071;28;20064;-78
2022/07/22 06:25:30;;;;;;;7.75;4.40;;;;;;;;;;6287248;28;20335;-75
2022/07/22 06:28:32;;;;;;;7.53;4.80;;;;;;;;;;6290695;28;20052;-74
2022/07/22 06:31:34;;;;;;;8.52;4.70;;;;;;;;;;6286267;28;20064;-76
2022/07/22 06:34:35;;;;;;;5.88;3.92;;;;;;;;;;6290652;28;20045;-76
2022/07/22 06:37:37;;;;;;;5.78;4.10;;;;;;;;;;6277993;28;20049;-75
2022/07/22 06:40:40;;;;;;;9.68;4.25;;;;;;;;;;6293408;28;20063;-74
2022/07/22 06:43:42;;;;;;;10.95;5.10;;;;;;;;;;6289786;28;20044;-77
2022/07/22 06:46:43;;;;;;;8.90;4.82;;;;;;;;;;6292096;28;20316;-75
2022/07/22 06:49:45;;;;;;;10.80;4.57;;;;;;;;;;6290272;28;20332;-75
2022/07/22 06:52:48;;;;;;;9.75;5.22;;;;;;;;;;6288983;28;20286;-76
2022/07/22 06:55:51;;;;;;;11.40;4.85;;;;;;;;;;6293173;28;20103;-75
2022/07/22 06:58:53;;;;;;;7.68;4.72;;;;;;;;;;6298683;28;20057;-76
2022/07/22 07:01:55;;;;;;;6.70;4.43;;;;;;;;;;6288652;28;20312;-76
2022/07/22 07:04:57;;;;;;;10.82;4.80;;;;;;;;;;6290769;28;20049;-75
2022/07/22 07:07:58;;;;;;;8.95;4.78;;;;;;;;;;6289813;28;20048;-76
2022/07/22 07:11:01;;;;;;;8.25;4.63;;;;;;;;;;6290915;28;20063;-76
2022/07/22 07:14:03;;;;;;;7.43;4.45;;;;;;;;;;6289677;28;20078;-76
2022/07/22 07:17:05;;;;;;;8.50;4.40;;;;;;;;;;6290429;28;20107;-75
2022/07/22 07:20:08;;;;;;;7.55;4.15;;;;;;;;;;6290295;28;20063;-76
2022/07/22 07:23:10;;;;;;;5.78;4.72;;;;;;;;;;6290117;28;20056;-75
2022/07/22 07:26:13;;;;;;;4.78;4.38;;;;;;;;;;6290851;28;20251;-75
2022/07/22 07:29:14;;;;;;;10.30;3.90;;;;;;;;;;6293514;28;20111;-76
2022/07/22 07:32:16;;;;;;;6.60;3.88;;;;;;;;;;6290016;28;20056;-75
2022/07/22 07:35:18;;;;;;;6.47;4.07;;;;;;;;;;6292494;28;20041;-76
2022/07/22 07:38:19;;;;;;;8.25;4.68;;;;;;;;;;6290690;28;20047;-74
2022/07/22 07:41:22;;;;;;;8.32;3.97;;;;;;;;;;6287942;28;22775;-73
2022/07/22 07:44:24;;;;;;;6.18;3.97;;;;;;;;;;6289552;28;20090;-75
2022/07/22 07:47:26;;;;;;;6.88;3.85;;;;;;;;;;6290631;28;20045;-73
2022/07/22 07:50:27;;;;;;;6.77;4.23;;;;;;;;;;6291173;28;20061;-75
2022/07/22 07:53:29;;;;;;;8.33;4.73;;;;;;;;;;6289088;28;20052;-74
2022/07/22 07:56:32;;;;;;;8.80;4.33;;;;;;;;;;6292875;28;20044;-75
2022/07/22 07:59:34;;;;;;;9.38;4.30;;;;;;;;;;6292921;28;20057;-74
2022/07/22 08:02:35;;;;;;;6.17;4.20;;;;;;;;;;6292659;28;20307;-79
2022/07/22 08:05:38;;;;;;;7.97;4.40;;;;;;;;;;6288717;28;20685;-78
2022/07/22 08:08:40;;;;;;;8.95;4.65;;;;;;;;;;6289164;28;20067;-80
2022/07/22 08:11:43;;;;;;;7.53;4.20;;;;;;;;;;6289748;28;20102;-72
2022/07/22 08:14:45;;;;;;;8.20;4.40;;;;;;;;;;6288784;28;20106;-78
2022/07/22 08:17:46;;;;;;;10.07;4.70;;;;;;;;;;6291834;28;20052;-79
2022/07/22 08:20:48;;;;;;;7.55;4.07;;;;;;;;;;6290162;28;20044;-80
2022/07/22 08:23:50;;;;;;;10.02;4.32;;;;;;;;;;6288318;28;20075;-78
2022/07/22 08:26:53;;;;;;;10.20;5.03;;;;;;;;;;6290107;28;20121;-72
2022/07/22 08:29:54;;;;;;;7.72;4.35;;;;;;;;;;6289729;28;20049;-70
2022/07/22 08:32:57;;;;;;;6.30;4.45;;;;;;;;;;6289016;28;20243;-73
2022/07/22 08:35:59;;;;;;;12.15;8.05;;;;;;;;;;6291965;28;20394;-72
2022/07/22 08:39:00;;;;;;;16.75;14.15;;;;;;;;;;6288410;28;20057;-72
2022/07/22 08:42:04;;;;;;;21.92;7.40;;;;;;;;;;6290730;28;20049;-75
2022/07/22 08:45:06;;;;;;;8.90;4.35;;;;;;;;;;6292082;28;20071;-75
2022/07/22 08:48:08;;;;;;;5.53;3.97;;;;;;;;;;6288219;28;20048;-75
2022/07/22 08:51:10;;;;;;;8.80;4.10;;;;;;;;;;6291395;28;20090;-72
2022/07/22 08:54:11;;;;;;;5.53;4.38;;;;;;;;;;6292493;28;20048;-74
2022/07/22 08:57:14;;;;;;;14.43;4.10;;;;;;;;;;6295909;28;20286;-73
2022/07/22 09:00:18;;;;;;;5.03;4.22;;;;;;;;;;6319917;28;20277;-75
2022/07/22 09:03:22;;;;;;;5.75;3.90;;;;;;;;;;6317663;28;20236;-75
2022/07/22 09:06:24;;;;;;;5.97;3.35;;;;;;;;;;6318658;28;20099;-75
2022/07/22 09:09:33;;;;;;;6.25;4.20;;;;;;;;;;6319421;28;20362;-75
2022/07/22 09:12:51;;;;;;;8.82;4.10;;;;;;;;;;6319303;28;20052;-75
2022/07/22 09:15:54;;;;;;;7.07;3.63;;;;;;;;;;6295165;28;20062;-75
2022/07/22 09:18:56;;;;;;;6.05;3.58;;;;;;;;;;6293210;28;20044;-73
2022/07/22 09:21:58;;;;;;;5.40;3.75;;;;;;;;;;6293965;28;20053;-75
2022/07/22 09:25:00;;;;;;;6.10;3.42;;;;;;;;;;6292371;28;20060;-74
2022/07/22 09:28:12;;;;;;;;;;;;;;;;;;6297357;28;20844;-76
2022/07/22 09:31:24;;;;;;;15.32;3.80;;;;;;;;;;6291230;28;20195;-73
2022/07/22 09:34:27;;;;;;;;;;;;;;;;;;6294071;28;20048;-73
2022/07/22 09:37:28;;;;;;;4.25;3.20;;;;;;;;;;6291293;28;19916;-75
2022/07/22 09:40:31;;;;;;;7.80;2.90;;;;;;;;;;6304643;28;20332;-73
2022/07/22 09:43:36;;;;;;;5.95;3.00;;;;;;;;;;6317563;28;20052;-74
2022/07/22 09:46:38;;;;;;;6.97;2.95;;;;;;;;;;6318066;28;20052;-73
2022/07/22 09:49:40;;;;;;;7.15;3.58;;;;;;;;;;6319371;28;20258;-74
2022/07/22 09:52:42;;;;;;;5.28;3.08;;;;;;;;;;6321570;28;20048;-75
2022/07/22 09:55:43;;;;;;;4.63;3.08;;;;;;;;;;6316786;28;20056;-75
2022/07/22 09:58:46;;;;;;;8.07;2.88;;;;;;;;;;6319819;28;20343;-75
2022/07/22 10:01:49;;;;;;;3.92;2.90;;;;;;;;;;6309209;28;20060;-75
2022/07/22 10:04:50;;;;;;;8.25;3.22;;;;;;;;;;6292103;28;20060;-73
2022/07/22 10:07:52;;;;;;;;;;;;;;;;;;6293056;28;20051;-70
2022/07/22 10:10:54;;;;;;;6.40;2.70;;;;;;;;;;6296253;28;19923;-73
2022/07/22 10:13:58;;;;;;;4.55;2.90;;;;;;;;;;6290939;28;20068;-73
2022/07/22 10:17:00;;;;;;;3.20;2.60;;;;;;;;;;6290681;28;20328;-73
2022/07/22 10:20:02;;;;;;;10.55;2.90;;;;;;;;;;6292517;28;20048;-75
2022/07/22 10:23:04;;;;;;;6.93;3.50;;;;;;;;;;6288481;28;20052;-74
2022/07/22 10:26:06;;;;;;;6.55;3.35;;;;;;;;;;6290066;28;20067;-72
2022/07/22 10:29:30;;;;;;;5.88;2.85;;;;;;;;;;6292204;28;20274;-73
2022/07/22 10:32:32;;;;;;;5.15;2.80;;;;;;;;;;6290728;28;20045;-72
2022/07/22 10:35:35;;;;;;;6.50;3.22;;;;;;;;;;6295688;28;20067;-75
2022/07/22 10:38:37;;;;;;;7.53;2.90;;;;;;;;;;6297145;28;20045;-75
2022/07/22 10:41:42;;;;;;;5.47;3.30;;;;;;;;;;6291255;28;20051;-74
2022/07/22 10:44:50;;;;;;;4.85;3.15;;;;;;;;;;6290330;28;20049;-70
2022/07/22 10:47:53;;;;;;;5.55;3.65;;;;;;;;;;6290441;28;20056;-75
2022/07/22 10:51:06;;;;;;;6.55;3.75;;;;;;;;;;6289977;28;20051;-74
2022/07/22 10:54:08;;;;;;;7.43;3.25;;;;;;;;;;6288676;28;20102;-74
2022/07/22 10:57:09;;;;;;;5.72;3.40;;;;;;;;;;6292621;28;20052;-75
2022/07/22 11:00:14;;;;;;;8.15;3.30;;;;;;;;;;6294097;28;20064;-74
2022/07/22 11:03:25;;;;;;;5.07;3.78;;;;;;;;;;6291302;28;20106;-75
2022/07/22 11:06:29;;;;;;;8.83;3.40;;;;;;;;;;6316026;28;20103;-73
2022/07/22 11:09:33;;;;;;;4.25;3.42;;;;;;;;;;6316365;28;20051;-74
2022/07/22 11:12:34;;;;;;;6.28;3.70;;;;;;;;;;6315968;28;20055;-75
2022/07/22 11:15:37;;;;;;;3.45;3.15;;;;;;;;;;6316269;28;23129;-74
2022/07/22 11:18:48;;;;;;;6.20;3.25;;;;;;;;;;6315077;28;20047;-75
2022/07/22 11:21:52;;;;;;;3.95;3.05;;;;;;;;;;6314990;28;20044;-73
2022/07/22 11:24:54;;;;;;;4.53;3.67;;;;;;;;;;6316653;28;20048;-75
2022/07/22 11:27:57;;;;;;;6.63;3.78;;;;;;;;;;6316861;28;20043;-74
2022/07/22 11:31:07;;;;;;;5.68;3.55;;;;;;;;;;6317837;28;20361;-74
2022/07/22 11:34:10;;;;;;;5.40;3.10;;;;;;;;;;6315143;28;20223;-74
2022/07/22 11:37:12;;;;;;;5.82;3.30;;;;;;;;;;6300850;28;20052;-74
2022/07/22 11:40:13;;;;;;;5.43;3.88;;;;;;;;;;6293812;28;20278;-73
2022/07/22 11:43:15;;;;;;;5.43;3.42;;;;;;;;;;6292493;28;20126;-72
2022/07/22 11:46:18;;;;;;;7.22;3.53;;;;;;;;;;6289655;28;20041;-71
2022/07/22 11:49:21;;;;;;;6.38;3.40;;;;;;;;;;6291361;28;20106;-74
2022/07/22 11:52:23;;;;;;;6.78;3.72;;;;;;;;;;6285834;28;20044;-74
2022/07/22 11:55:25;;;;;;;6.18;3.47;;;;;;;;;;6288009;28;20064;-74
2022/07/22 11:58:37;;;;;;;5.95;3.53;;;;;;;;;;6292405;28;20051;-74
2022/07/22 12:01:41;;;;;;;5.85;3.55;;;;;;;;;;6286228;28;20053;-70
2022/07/22 12:04:44;;;;;;;9.98;3.53;;;;;;;;;;6288259;28;20268;-76
2022/07/22 12:07:46;;;;;;;6.00;3.47;;;;;;;;;;6288455;28;20045;-73
2022/07/22 12:10:47;;;;;;;7.60;3.78;;;;;;;;;;6292785;28;20582;-72
2022/07/22 12:13:50;;;;;;;6.82;3.72;;;;;;;;;;6291584;28;20393;-73
2022/07/22 12:16:58;;;;;;;4.38;3.80;;;;;;;;;;6292441;28;20056;-73
2022/07/22 12:20:11;;;;;;;4.10;3.75;;;;;;;;;;6289501;28;20060;-73
2022/07/22 12:23:13;;;;;;;9.57;3.47;;;;;;;;;;6287790;28;20104;-74
2022/07/22 12:26:14;;;;;;;4.03;3.58;;;;;;;;;;6288527;28;20044;-72
2022/07/22 12:29:18;;;;;;;8.52;3.80;;;;;;;;;;6285715;28;20053;-72
2022/07/22 12:32:27;;;;;;;8.20;3.40;;;;;;;;;;6290159;28;20045;-74
2022/07/22 12:35:28;;;;;;;7.80;3.90;;;;;;;;;;6292298;28;20064;-74
2022/07/22 12:38:30;;;;;;;4.32;3.95;;;;;;;;;;6286841;28;20052;-71
2022/07/22 12:41:32;;;;;;;10.38;3.90;;;;;;;;;;6286877;28;20117;-73
2022/07/22 12:44:34;;;;;;;4.40;3.60;;;;;;;;;;6293512;28;20047;-74
2022/07/22 12:47:43;;;;;;;4.22;3.58;;;;;;;;;;6286950;28;20067;-74
2022/07/22 12:50:55;;;;;;;4.40;4.00;;;;;;;;;;6291580;28;20112;-73
2022/07/22 12:53:58;;;;;;;4.93;4.13;;;;;;;;;;6289588;28;20490;-72
2022/07/22 12:57:00;;;;;;;6.82;4.18;;;;;;;;;;6296130;28;20125;-74
2022/07/22 13:00:02;;;;;;;4.10;3.53;;;;;;;;;;6290867;28;20052;-73
2022/07/22 13:03:05;;;;;;;7.20;4.32;;;;;;;;;;6292853;28;20126;-73
2022/07/22 13:06:10;;;;;;;7.28;3.97;;;;;;;;;;6290431;28;20052;-73
2022/07/22 13:09:11;;;;;;;4.50;4.10;;;;;;;;;;6291567;28;20098;-75
2022/07/22 13:12:13;;;;;;;5.03;3.85;;;;;;;;;;6292084;28;20049;-74
2022/07/22 13:15:15;;;;;;;7.68;4.47;;;;;;;;;;6291148;28;20040;-73
2022/07/22 13:18:18;;;;;;;6.88;4.22;;;;;;;;;;6319430;28;20069;-74
2022/07/22 13:21:20;;;;;;;9.63;4.75;;;;;;;;;;6318457;28;20060;-75
2022/07/22 13:24:22;;;;;;;6.40;4.30;;;;;;;;;;6316968;28;20362;-74
2022/07/22 13:27:23;;;;;;;6.30;4.10;;;;;;;;;;6314219;28;20048;-74
2022/07/22 13:30:25;;;;;;;4.40;4.00;;;;;;;;;;6294986;28;20332;-74
2022/07/22 13:33:28;;;;;;;5.70;3.80;;;;;;;;;;6291605;28;20053;-72
2022/07/22 13:36:32;;;;;;;6.78;4.38;;;;;;;;;;6292794;28;20095;-73
2022/07/22 13:39:34;;;;;;;5.47;3.83;;;;;;;;;;6294009;28;20122;-74
2022/07/22 13:42:35;;;;;;;6.10;4.72;;;;;;;;;;6297800;28;20066;-73
2022/07/22 13:45:37;;;;;;;7.35;3.80;;;;;;;;;;6297882;28;20055;-69
2022/07/22 13:48:40;;;;;;;7.55;4.50;;;;;;;;;;6293866;28;20048;-73
2022/07/22 13:51:42;;;;;;;7.80;4.78;;;;;;;;;;6292310;28;20045;-74
2022/07/22 13:54:43;;;;;;;8.48;4.25;;;;;;;;;;6297216;28;20086;-72
2022/07/22 13:57:46;;;;;;;6.82;5.63;;;;;;;;;;6296426;28;20239;-73
2022/07/22 14:00:48;;;;;;;7.13;4.75;;;;;;;;;;6296476;28;20067;-75
2022/07/22 14:03:51;;;;;;;5.32;4.40;;;;;;;;;;6295058;28;20126;-69
2022/07/22 14:06:53;;;;;;;5.93;4.18;;;;;;;;;;6293569;28;20045;-72
2022/07/22 14:09:55;;;;;;;6.53;4.45;;;;;;;;;;6296411;28;20261;-73
2022/07/22 14:12:56;;;;;;;7.40;4.50;;;;;;;;;;6293451;28;20080;-76
2022/07/22 14:16:33;;;;;;;5.80;4.18;;;;;;;;;;6296436;28;20059;-72
2022/07/22 14:19:21;;;;;;;8.27;4.20;;;;;;;;;;6292049;28;20049;-76
2022/07/22 14:22:23;;;;;;;5.20;4.50;;;;;;;;;;6293746;28;20048;-75
2022/07/22 14:25:24;;;;;;;4.60;4.20;;;;;;;;;;6296040;28;20217;-75
2022/07/22 14:28:26;;;;;;;8.82;3.90;;;;;;;;;;6295078;28;20123;-75
2022/07/22 14:31:28;;;;;;;6.40;4.20;;;;;;;;;;6292841;28;20816;-74
2022/07/22 14:34:31;;;;;;;8.27;4.22;;;;;;;;;;6295854;28;20091;-74
2022/07/22 14:37:32;;;;;;;4.72;4.32;;;;;;;;;;6293543;28;20057;-72
2022/07/22 14:40:34;;;;;;;4.47;4.07;;;;;;;;;;6282661;28;20114;-74
2022/07/22 14:43:36;;;;;;;7.15;4.35;;;;;;;;;;6295992;28;20057;-75
2022/07/22 14:46:37;;;;;;;7.10;4.50;;;;;;;;;;6301196;28;20086;-75
2022/07/22 14:49:40;;;;;;;8.60;4.22;;;;;;;;;;6297928;28;20103;-74
2022/07/22 14:52:42;;;;;;;5.35;4.80;;;;;;;;;;6296380;28;20048;-72
2022/07/22 14:55:44;;;;;;;5.95;4.72;;;;;;;;;;6296915;28;20099;-73
2022/07/22 14:58:45;;;;;;;5.68;4.60;;;;;;;;;;6296777;28;20235;-73
2022/07/22 15:01:47;;;;;;;5.07;4.57;;;;;;;;;;6289947;28;20045;-73
2022/07/22 15:04:50;;;;;;;6.35;4.38;;;;;;;;;;6292577;28;20094;-74
2022/07/22 15:07:52;;;;;;;4.93;4.53;;;;;;;;;;6295269;28;20044;-72
2022/07/22 15:10:53;;;;;;;6.85;4.63;;;;;;;;;;6291330;28;20052;-75
2022/07/22 15:13:55;;;;;;;6.53;4.50;;;;;;;;;;6291302;28;20201;-71
2022/07/22 15:16:56;;;;;;;6.80;4.60;;;;;;;;;;6289502;28;20048;-74
2022/07/22 15:19:59;;;;;;;;;;;;;;;;;;6288807;28;20056;-73
2022/07/22 15:23:01;;;;;;;9.00;4.68;;;;;;;;;;6297351;28;19928;-70
2022/07/22 15:26:02;;;;;;;;;;;;;;;;;;6298805;28;20056;-77
2022/07/22 15:29:04;;;;;;;6.15;4.72;;;;;;;;;;6298672;28;20100;-76
2022/07/22 15:32:06;;;;;;;5.15;4.75;;;;;;;;;;6294935;28;20247;-76
2022/07/22 15:35:09;;;;;;;5.90;4.45;;;;;;;;;;6300141;28;20405;-73
2022/07/22 15:38:11;;;;;;;8.15;4.63;;;;;;;;;;6298474;28;20099;-75
2022/07/22 15:41:13;;;;;;;7.90;4.97;;;;;;;;;;6298691;28;20054;-74
2022/07/22 15:44:15;;;;;;;5.53;4.70;;;;;;;;;;6295533;28;20048;-74
2022/07/22 15:47:17;;;;;;;5.55;4.65;;;;;;;;;;6294032;28;20053;-73
2022/07/22 15:50:21;;;;;;;5.10;4.47;;;;;;;;;;6294260;28;20107;-73
2022/07/22 15:53:23;;;;;;;6.05;4.28;;;;;;;;;;6291930;28;20271;-69
2022/07/22 15:56:25;;;;;;;7.47;5.60;;;;;;;;;;6292702;28;20040;-72
2022/07/22 15:59:31;;;;;;;8.80;5.35;;;;;;;;;;6290707;28;21268;-72
2022/07/22 16:02:33;;;;;;;8.63;5.20;;;;;;;;;;6288990;28;20067;-69
2022/07/22 16:05:36;;;;;;;6.80;4.95;;;;;;;;;;6283212;28;20335;-71
2022/07/22 16:08:38;;;;;;;4.85;4.20;;;;;;;;;;6285007;28;20052;-71
2022/07/22 16:11:39;;;;;;;5.70;4.68;;;;;;;;;;6283635;28;20044;-71
2022/07/22 16:14:41;;;;;;;6.45;4.78;;;;;;;;;;6280410;28;20336;-76
2022/07/22 16:17:42;;;;;;;7.85;4.65;;;;;;;;;;6282245;28;20051;-76
2022/07/22 16:20:46;;;;;;;7.15;4.40;;;;;;;;;;6283655;28;20052;-75
2022/07/22 16:23:48;;;;;;;7.40;4.90;;;;;;;;;;6286375;28;20052;-73
2022/07/22 16:26:50;;;;;;;9.02;4.30;;;;;;;;;;6288045;28;20335;-73
2022/07/22 16:29:52;;;;;;;7.20;5.00;;;;;;;;;;6282274;28;20087;-73
2022/07/22 16:32:54;;;;;;;10.90;5.00;;;;;;;;;;6282685;28;20056;-73
2022/07/22 16:35:57;;;;;;;6.70;4.97;;;;;;;;;;6286380;28;20059;-73
2022/07/22 16:39:00;;;;;;;7.30;5.05;;;;;;;;;;6285678;28;20230;-73
2022/07/22 16:42:01;;;;;;;7.35;5.18;;;;;;;;;;6282713;28;20336;-74
2022/07/22 16:45:04;;;;;;;6.50;5.30;;;;;;;;;;6284215;28;20064;-72
2022/07/22 16:48:06;;;;;;;8.52;4.90;;;;;;;;;;6282887;28;20119;-73
2022/07/22 16:51:09;;;;;;;;;;;;;;;;;;6285933;28;20110;-72
2022/07/22 16:54:10;;;;;;;;;;;;;;;;;;6284420;28;19925;-70
2022/07/22 16:57:12;;;;;;;9.85;5.38;;;;;;;;;;6284526;28;20297;-74
2022/07/22 17:00:14;;;;;;;6.80;5.38;;;;;;;;;;6285844;28;20098;-75
2022/07/22 17:03:16;;;;;;;7.65;5.05;;;;;;;;;;6283989;28;20227;-72
2022/07/22 17:06:20;;;;;;;7.63;5.45;;;;;;;;;;6282292;28;20048;-72
2022/07/22 17:09:21;;;;;;;6.88;5.45;;;;;;;;;;6284449;28;20062;-74
2022/07/22 17:12:23;;;;;;;8.25;5.65;;;;;;;;;;6285121;28;20111;-73
2022/07/22 17:15:25;;;;;;;6.68;5.00;;;;;;;;;;6306748;28;20052;-73
2022/07/22 17:18:27;;;;;;;9.27;5.30;;;;;;;;;;6285908;28;20048;-72
2022/07/22 17:21:30;;;;;;;5.07;4.57;;;;;;;;;;6286921;28;20106;-73
2022/07/22 17:24:32;;;;;;;5.63;5.05;;;;;;;;;;6288845;28;20279;-69
2022/07/22 17:27:33;;;;;;;8.25;5.20;;;;;;;;;;6292358;28;20102;-73
2022/07/22 17:30:35;;;;;;;13.75;5.22;;;;;;;;;;6284610;28;20106;-75
2022/07/22 17:33:38;;;;;;;9.30;5.15;;;;;;;;;;6286199;28;20111;-74
2022/07/22 17:36:41;;;;;;;5.45;4.95;;;;;;;;;;6291987;28;20335;-74
2022/07/22 17:39:42;;;;;;;6.93;5.18;;;;;;;;;;6294520;28;20048;-74
2022/07/22 17:42:44;;;;;;;8.48;4.80;;;;;;;;;;6299027;28;20048;-72
2022/07/22 17:45:46;;;;;;;5.70;5.05;;;;;;;;;;6297245;28;20040;-74
2022/07/22 17:48:47;;;;;;;6.70;5.83;;;;;;;;;;6291791;28;20045;-75
2022/07/22 17:51:51;;;;;;;7.47;5.00;;;;;;;;;;6293768;28;20477;-72
2022/07/22 17:54:53;;;;;;;9.45;5.40;;;;;;;;;;6289163;28;20459;-73
2022/07/22 17:57:55;;;;;;;5.47;4.97;;;;;;;;;;6288649;28;20053;-74
2022/07/22 18:00:56;;;;;;;9.53;5.13;;;;;;;;;;6295467;28;20044;-73
2022/07/22 18:03:58;;;;;;;6.07;5.13;;;;;;;;;;6298534;28;20462;-74
2022/07/22 18:07:03;;;;;;;9.40;4.97;;;;;;;;;;6294441;28;20478;-73
2022/07/22 18:10:05;;;;;;;16.17;5.10;;;;;;;;;;6294342;28;20049;-74
2022/07/22 18:13:06;;;;;;;;;;;;;;;;;;6297483;28;20044;-74
2022/07/22 18:16:08;;;;;;;7.32;5.18;;;;;;;;;;6295122;28;20104;-74
2022/07/22 18:19:10;;;;;;;8.35;4.88;;;;;;;;;;6294814;28;21453;-73